地図

経路データ

SID SEASON NUMBER BASIN SUBBASIN NAME ISO_TIME NATURE LAT LON WMO_WIND WMO_PRES WMO_AGENCY TRACK_TYPE DIST2LAND LANDFALL IFLAG USA_AGENCY USA_ATCF_ID USA_LAT USA_LON USA_RECORD USA_STATUS USA_WIND USA_PRES USA_SSHS USA_R34_NE USA_R34_SE USA_R34_SW USA_R34_NW USA_R50_NE USA_R50_SE USA_R50_SW USA_R50_NW USA_R64_NE USA_R64_SE USA_R64_SW USA_R64_NW USA_POCI USA_ROCI USA_RMW USA_EYE TOKYO_LAT TOKYO_LON TOKYO_GRADE TOKYO_WIND TOKYO_PRES TOKYO_R50_DIR TOKYO_R50_LONG TOKYO_R50_SHORT TOKYO_R30_DIR TOKYO_R30_LONG TOKYO_R30_SHORT TOKYO_LAND CMA_LAT CMA_LON CMA_CAT CMA_WIND CMA_PRES HKO_LAT HKO_LON HKO_CAT HKO_WIND HKO_PRES NEWDELHI_LAT NEWDELHI_LON NEWDELHI_GRADE NEWDELHI_WIND NEWDELHI_PRES NEWDELHI_CI NEWDELHI_DP NEWDELHI_POCI REUNION_LAT REUNION_LON REUNION_TYPE REUNION_WIND REUNION_PRES REUNION_TNUM REUNION_CI REUNION_RMW REUNION_R34_NE REUNION_R34_SE REUNION_R34_SW REUNION_R34_NW REUNION_R50_NE REUNION_R50_SE REUNION_R50_SW REUNION_R50_NW REUNION_R64_NE REUNION_R64_SE REUNION_R64_SW REUNION_R64_NW BOM_LAT BOM_LON BOM_TYPE BOM_WIND BOM_PRES BOM_TNUM BOM_CI BOM_RMW BOM_R34_NE BOM_R34_SE BOM_R34_SW BOM_R34_NW BOM_R50_NE BOM_R50_SE BOM_R50_SW BOM_R50_NW BOM_R64_NE BOM_R64_SE BOM_R64_SW BOM_R64_NW BOM_ROCI BOM_POCI BOM_EYE BOM_POS_METHOD BOM_PRES_METHOD NADI_LAT NADI_LON NADI_CAT NADI_WIND NADI_PRES WELLINGTON_LAT WELLINGTON_LON WELLINGTON_WIND WELLINGTON_PRES DS824_LAT DS824_LON DS824_STAGE DS824_WIND DS824_PRES TD9636_LAT TD9636_LON TD9636_STAGE TD9636_WIND TD9636_PRES TD9635_LAT TD9635_LON TD9635_WIND TD9635_PRES TD9635_ROCI NEUMANN_LAT NEUMANN_LON NEUMANN_CLASS NEUMANN_WIND NEUMANN_PRES MLC_LAT MLC_LON MLC_CLASS MLC_WIND MLC_PRES USA_GUST BOM_GUST BOM_GUST_PER REUNION_GUST REUNION_GUST_PER USA_SEAHGT USA_SEARAD_NE USA_SEARAD_SE USA_SEARAD_SW USA_SEARAD_NW STORM_SPEED STORM_DIR
1970223N19340 1970 85 NA NA NOT_NAMED 1970-08-11 06:00:00 TS 19.0000 -20.0000 25 hurdat_atl main 363 363 O_____________ hurdat_atl AL071970 19.0000 -20.0000 TD 25 -1 9 270
1970223N19340 1970 85 NA NA NOT_NAMED 1970-08-11 09:00:00 TS 19.0002 -20.4825 main 408 408 P_____________ AL071970 19.0002 -20.4825 TD 25 -1 9 270
1970223N19340 1970 85 NA NA NOT_NAMED 1970-08-11 12:00:00 TS 19.0000 -21.0000 25 hurdat_atl main 454 454 O_____________ hurdat_atl AL071970 19.0000 -21.0000 TD 25 -1 10 270
1970223N19340 1970 85 NA NA NOT_NAMED 1970-08-11 15:00:00 TS 18.9999 -21.5775 main 511 511 P_____________ AL071970 18.9999 -21.5775 TD 25 -1 11 270
1970223N19340 1970 85 NA NA NOT_NAMED 1970-08-11 18:00:00 TS 19.0000 -22.2000 25 hurdat_atl main 569 569 O_____________ hurdat_atl AL071970 19.0000 -22.2000 TD 25 -1 12 270
1970223N19340 1970 85 NA NA NOT_NAMED 1970-08-11 21:00:00 TS 18.9998 -22.8425 main 628 628 P_____________ AL071970 18.9998 -22.8425 TD 25 -1 12 270
1970223N19340 1970 85 NA NA NOT_NAMED 1970-08-12 00:00:00 TS 19.0000 -23.5000 25 hurdat_atl main 698 698 O_____________ hurdat_atl AL071970 19.0000 -23.5000 TD 25 -1 12 270
1970223N19340 1970 85 NA NA NOT_NAMED 1970-08-12 03:00:00 TS 18.9998 -24.1575 main 769 769 P_____________ AL071970 18.9998 -24.1575 TD 25 -1 12 270
1970223N19340 1970 85 NA NA NOT_NAMED 1970-08-12 06:00:00 TS 19.0000 -24.8000 25 hurdat_atl main 829 829 O_____________ hurdat_atl AL071970 19.0000 -24.8000 TD 25 -1 12 270
1970223N19340 1970 85 NA NA NOT_NAMED 1970-08-12 09:00:00 TS 18.9995 -25.3850 main 890 890 P_____________ AL071970 18.9995 -25.3850 TD 27 -1 11 270
1970223N19340 1970 85 NA NA NOT_NAMED 1970-08-12 12:00:00 NR 19.0000 -26.0000 30 hurdat_atl main 951 951 O_____________ hurdat_atl AL071970 19.0000 -26.0000 DB 30 -3 13 270
1970223N19340 1970 85 NA NA NOT_NAMED 1970-08-12 15:00:00 NR 19.0000 -26.7275 main 1023 1023 P_____________ AL071970 19.0000 -26.7275 DB 30 -3 14 270
1970223N19340 1970 85 NA NA NOT_NAMED 1970-08-12 18:00:00 NR 19.0000 -27.5000 30 hurdat_atl main 1105 1105 O_____________ hurdat_atl AL071970 19.0000 -27.5000 DB 30 -3 14 270
1970223N19340 1970 85 NA NA NOT_NAMED 1970-08-12 21:00:00 NR 18.9997 -28.2500 main 1177 1187 P_____________ AL071970 18.9997 -28.2500 DB 30 -3 14 270
1970223N19340 1970 85 NA NA NOT_NAMED 1970-08-13 00:00:00 NR 19.0000 -29.0000 30 hurdat_atl main 1259 1259 O_____________ hurdat_atl AL071970 19.0000 -29.0000 DB 30 -3 14 270
1970223N19340 1970 85 NA NA NOT_NAMED 1970-08-13 03:00:00 NR 19.0072 -29.7499 main 1332 1332 P_____________ AL071970 19.0072 -29.7499 DB 30 -3 14 270
1970223N19340 1970 85 NA NA NOT_NAMED 1970-08-13 06:00:00 NR 19.0000 -30.5000 30 hurdat_atl main 1414 1414 O_____________ hurdat_atl AL071970 19.0000 -30.5000 DB 30 -3 14 268
1970223N19340 1970 85 NA NA NOT_NAMED 1970-08-13 09:00:00 NR 18.9647 -31.2500 main 1487 1487 P_____________ AL071970 18.9647 -31.2500 DB 30 -3 14 266
1970223N19340 1970 85 NA NA NOT_NAMED 1970-08-13 12:00:00 NR 18.9000 -32.0000 30 hurdat_atl main 1572 1572 O_____________ hurdat_atl AL071970 18.9000 -32.0000 DB 30 -3 14 264
1970223N19340 1970 85 NA NA NOT_NAMED 1970-08-13 15:00:00 NR 18.8072 -32.7500 main 1656 1656 P_____________ AL071970 18.8072 -32.7500 DB 30 -3 14 262
1970223N19340 1970 85 NA NA NOT_NAMED 1970-08-13 18:00:00 NR 18.7000 -33.5000 30 hurdat_atl main 1731 1731 O_____________ hurdat_atl AL071970 18.7000 -33.5000 DB 30 -3 14 262
1970223N19340 1970 85 NA NA NOT_NAMED 1970-08-13 21:00:00 NR 18.6072 -34.2498 main 1806 1806 P_____________ AL071970 18.6072 -34.2498 DB 30 -3 14 262
1970223N19340 1970 85 NA NA NOT_NAMED 1970-08-14 00:00:00 NR 18.5000 -35.0000 30 hurdat_atl main 1890 1890 O_____________ hurdat_atl AL071970 18.5000 -35.0000 DB 30 -3 14 260
1970223N19340 1970 85 NA NA NOT_NAMED 1970-08-14 03:00:00 NR 18.3497 -35.7501 main 1978 1978 P_____________ AL071970 18.3497 -35.7501 DB 30 -3 15 258
1970223N19340 1970 85 NA NA NOT_NAMED 1970-08-14 06:00:00 NR 18.2000 -36.5000 30 hurdat_atl main 2052 2052 O_____________ hurdat_atl AL071970 18.2000 -36.5000 DB 30 -3 15 259
1970223N19340 1970 85 NA NA NOT_NAMED 1970-08-14 09:00:00 NR 18.0772 -37.2500 main 2127 2109 P_____________ AL071970 18.0772 -37.2500 DB 30 -3 14 262
1970223N19340 1970 85 NA NA NOT_NAMED 1970-08-14 12:00:00 NR 18.0000 -38.0000 30 hurdat_atl main 2109 2058 O_____________ hurdat_atl AL071970 18.0000 -38.0000 DB 30 -3 14 266
1970223N19340 1970 85 NA NA NOT_NAMED 1970-08-14 15:00:00 NR 17.9847 -38.7498 main 2058 2001 P_____________ AL071970 17.9847 -38.7498 DB 30 -3 14 270
1970223N19340 1970 85 NA NA NOT_NAMED 1970-08-14 18:00:00 NR 18.0000 -39.5000 30 hurdat_atl main 2001 1953 O_____________ hurdat_atl AL071970 18.0000 -39.5000 DB 30 -3 14 271
1970223N19340 1970 85 NA NA NOT_NAMED 1970-08-14 21:00:00 NR 17.9997 -40.2500 main 1953 1900 P_____________ AL071970 17.9997 -40.2500 DB 30 -3 14 270
1970223N19340 1970 85 NA NA NOT_NAMED 1970-08-15 00:00:00 NR 18.0000 -41.0000 30 hurdat_atl main 1900 1856 O_____________ hurdat_atl AL071970 18.0000 -41.0000 DB 30 -3 14 270
1970223N19340 1970 85 NA NA NOT_NAMED 1970-08-15 03:00:00 NR 17.9997 -41.7500 main 1856 1805 P_____________ AL071970 17.9997 -41.7500 DB 30 -3 14 270
1970223N19340 1970 85 NA NA NOT_NAMED 1970-08-15 06:00:00 NR 18.0000 -42.5000 30 hurdat_atl main 1805 1760 O_____________ hurdat_atl AL071970 18.0000 -42.5000 DB 30 -3 14 270
1970223N19340 1970 85 NA NA NOT_NAMED 1970-08-15 09:00:00 NR 17.9992 -43.2125 main 1760 1711 P_____________ AL071970 17.9992 -43.2125 DB 30 -3 14 270
1970223N19340 1970 85 NA NA NOT_NAMED 1970-08-15 12:00:00 NR 18.0000 -44.0000 30 hurdat_atl main 1711 1660 O_____________ hurdat_atl AL071970 18.0000 -44.0000 DB 30 -3 17 270
1970223N19340 1970 85 NA NA NOT_NAMED 1970-08-15 15:00:00 NR 18.0000 -44.9625 main 1654 1607 P_____________ AL071970 18.0000 -44.9625 DB 30 -3 19 270
1970223N19340 1970 85 NA NA NOT_NAMED 1970-08-15 18:00:00 NR 18.0000 -46.0000 30 hurdat_atl main 1602 1560 O_____________ hurdat_atl AL071970 18.0000 -46.0000 DB 30 -3 19 270
1970223N19340 1970 85 NA NA NOT_NAMED 1970-08-15 21:00:00 NR 17.9995 -47.0000 main 1555 1517 P_____________ AL071970 17.9995 -47.0000 DB 27 -3 19 270
1970223N19340 1970 85 NA NA NOT_NAMED 1970-08-16 00:00:00 NR 18.0000 -48.0000 25 hurdat_atl main 1513 1472 O_____________ hurdat_atl AL071970 18.0000 -48.0000 DB 25 -3 19 270
1970223N19340 1970 85 NA NA NOT_NAMED 1970-08-16 03:00:00 NR 17.9845 -49.0003 main 1467 1433 P_____________ AL071970 17.9845 -49.0003 DB 25 -3 19 270
1970223N19340 1970 85 NA NA NOT_NAMED 1970-08-16 06:00:00 NR 18.0000 -50.0000 25 hurdat_atl main 1429 1358 O_____________ hurdat_atl AL071970 18.0000 -50.0000 DB 25 -3 19 273
1970223N19340 1970 85 NA NA NOT_NAMED 1970-08-16 09:00:00 NR 18.0775 -51.0374 main 1358 1281 P_____________ AL071970 18.0775 -51.0374 DB 25 -3 19 276
1970223N19340 1970 85 NA NA NOT_NAMED 1970-08-16 12:00:00 NR 18.2000 -52.0000 25 hurdat_atl main 1281 1233 O_____________ hurdat_atl AL071970 18.2000 -52.0000 DB 25 -3 17 279
1970223N19340 1970 85 NA NA NOT_NAMED 1970-08-16 15:00:00 NR 18.3267 -52.7878 main 1225 1188 P_____________ AL071970 18.3267 -52.7878 DB 25 -3 15 282
1970223N19340 1970 85 NA NA NOT_NAMED 1970-08-16 18:00:00 NR 18.5000 -53.5000 25 hurdat_atl main 1188 1155 O_____________ hurdat_atl AL071970 18.5000 -53.5000 DB 25 -3 14 286
1970223N19340 1970 85 NA NA NOT_NAMED 1970-08-16 21:00:00 NR 18.7347 -54.2500 main 1149 1118 P_____________ AL071970 18.7347 -54.2500 DB 27 -3 15 289
1970223N19340 1970 85 NA NA NOT_NAMED 1970-08-17 00:00:00 TS 19.0000 -55.0000 30 hurdat_atl main 1118 1045 O_____________ hurdat_atl AL071970 19.0000 -55.0000 TD 30 -1 15 290
1970223N19340 1970 85 NA NA NOT_NAMED 1970-08-17 03:00:00 TS 19.2497 -55.7502 main 1035 964 P_____________ AL071970 19.2497 -55.7502 TD 30 -1 15 289
1970223N19340 1970 85 NA NA NOT_NAMED 1970-08-17 06:00:00 TS 19.5000 -56.5000 30 hurdat_atl main 964 894 O_____________ hurdat_atl AL071970 19.5000 -56.5000 TD 30 -1 15 289
1970223N19340 1970 85 NA NA NOT_NAMED 1970-08-17 09:00:00 TS 19.7497 -57.2502 main 884 817 P_____________ AL071970 19.7497 -57.2502 TD 30 -1 15 290
1970223N19340 1970 85 NA NA NOT_NAMED 1970-08-17 12:00:00 TS 20.0000 -58.0000 30 hurdat_atl main 817 751 O_____________ hurdat_atl AL071970 20.0000 -58.0000 TD 30 -1 15 290
1970223N19340 1970 85 NA NA NOT_NAMED 1970-08-17 15:00:00 TS 20.2497 -58.7502 main 741 681 P_____________ AL071970 20.2497 -58.7502 TD 30 -1 15 290
1970223N19340 1970 85 NA NA NOT_NAMED 1970-08-17 18:00:00 TS 20.5000 -59.5000 30 hurdat_atl main 681 621 O_____________ hurdat_atl AL071970 20.5000 -59.5000 TD 30 -1 15 289
1970223N19340 1970 85 NA NA NOT_NAMED 1970-08-17 21:00:00 TS 20.7345 -60.2356 main 621 562 P_____________ AL071970 20.7345 -60.2356 TD 30 -1 15 290
1970223N19340 1970 85 NA NA NOT_NAMED 1970-08-18 00:00:00 TS 21.0000 -61.0000 30 hurdat_atl main 562 512 O_____________ hurdat_atl AL071970 21.0000 -61.0000 TD 30 -1 16 291
1970223N19340 1970 85 NA NA NOT_NAMED 1970-08-18 03:00:00 TS 21.3049 -61.8431 main 512 475 P_____________ AL071970 21.3049 -61.8431 TD 30 -1 17 294
1970223N19340 1970 85 NA NA NOT_NAMED 1970-08-18 06:00:00 TS 21.7000 -62.7000 30 hurdat_atl main 477 467 O_____________ hurdat_atl AL071970 21.7000 -62.7000 TD 30 -1 18 299
1970223N19340 1970 85 NA NA NOT_NAMED 1970-08-18 09:00:00 TS 22.1898 -63.5304 main 478 473 P_____________ AL071970 22.1898 -63.5304 TD 27 -1 18 307
1970223N19340 1970 85 NA NA NOT_NAMED 1970-08-18 12:00:00 TS 22.8000 -64.3000 25 hurdat_atl main 510 510 O_____________ hurdat_atl AL071970 22.8000 -64.3000 TD 25 -1 19 315
1970223N19340 1970 85 NA NA NOT_NAMED 1970-08-18 15:00:00 TS 23.5203 -64.9761 main 573 573 P_____________ AL071970 23.5203 -64.9761 TD 25 -1 19 322
1970223N19340 1970 85 NA NA NOT_NAMED 1970-08-18 18:00:00 TS 24.3000 -65.6000 25 hurdat_atl main 659 O_____________ hurdat_atl AL071970 24.3000 -65.6000 TD 25 -1 19 324

IBTrACS Databaseについて

本データベースは、米国NOAAが公開する1842年以降の世界の熱帯低気圧のベストトラックデータアーカイブInternational Best Track Archive for Climate Stewardship (IBTrACS)を、ウェブで閲覧しやすい形式に変換したものです。

最終更新日:2022-05-26